createdAt,value
2023-03-14T00:01:33.857Z,4.43
2023-03-14T00:04:00.829Z,4.93
2023-03-14T00:06:28.186Z,3.90
2023-03-14T00:08:56.187Z,4.83
2023-03-14T00:11:23.614Z,4.13
2023-03-14T00:13:52.236Z,4.53
2023-03-14T00:16:21.510Z,4.30
2023-03-14T00:18:48.981Z,4.77
2023-03-14T00:21:15.940Z,3.73
2023-03-14T00:23:44.037Z,4.13
2023-03-14T00:26:17.070Z,3.80
2023-03-14T00:28:45.127Z,4.33
2023-03-14T00:31:15.585Z,3.87
2023-03-14T00:33:43.606Z,4.33
2023-03-14T00:36:13.590Z,3.70
2023-03-14T00:38:42.493Z,3.70
2023-03-14T00:41:12.473Z,3.50
2023-03-14T00:43:39.552Z,4.10
2023-03-14T00:46:07.159Z,3.57
2023-03-14T00:48:36.884Z,3.80
2023-03-14T00:51:05.301Z,3.77
2023-03-14T00:53:32.344Z,4.13
2023-03-14T00:56:04.670Z,5.03
2023-03-14T00:58:31.549Z,4.10
2023-03-14T01:00:58.950Z,4.17
2023-03-14T01:03:26.152Z,4.40
2023-03-14T01:05:52.991Z,4.10
2023-03-14T01:08:19.826Z,4.30
2023-03-14T01:10:46.806Z,3.73
2023-03-14T01:13:14.000Z,3.67
2023-03-14T01:15:40.999Z,4.00
2023-03-14T01:18:07.780Z,3.87
2023-03-14T01:20:34.604Z,3.67
2023-03-14T01:23:01.529Z,3.87
2023-03-14T01:25:31.498Z,4.43
2023-03-14T01:27:58.538Z,4.27
2023-03-14T01:30:25.353Z,3.90
2023-03-14T01:32:52.188Z,3.33
2023-03-14T01:35:19.200Z,4.03
2023-03-14T01:37:46.260Z,4.20
2023-03-14T01:40:15.270Z,3.50
2023-03-14T01:42:47.552Z,3.90
2023-03-14T01:45:52.063Z,3.80
2023-03-14T01:48:19.148Z,4.00
2023-03-14T01:50:46.006Z,4.00
2023-03-14T01:53:13.066Z,4.00
2023-03-14T01:55:39.995Z,3.70
2023-03-14T01:58:07.108Z,3.70
2023-03-14T02:00:34.040Z,4.37
2023-03-14T02:03:08.953Z,3.43
2023-03-14T02:05:39.138Z,3.90
2023-03-14T02:08:11.114Z,3.60
2023-03-14T02:10:44.472Z,4.10
2023-03-14T02:13:12.843Z,4.43
2023-03-14T02:15:40.339Z,3.60
2023-03-14T02:18:08.836Z,3.63
2023-03-14T02:20:46.067Z,3.87
2023-03-14T02:23:15.793Z,3.70
2023-03-14T02:25:47.131Z,3.73
2023-03-14T02:28:14.508Z,4.10
2023-03-14T02:30:42.006Z,4.10
2023-03-14T02:33:12.757Z,4.80
2023-03-14T02:36:00.388Z,4.80
2023-03-14T02:38:37.343Z,4.43
2023-03-14T02:41:04.686Z,4.97
2023-03-14T02:43:31.708Z,5.00
2023-03-14T02:45:59.249Z,5.00
2023-03-14T02:48:29.577Z,5.67
2023-03-14T02:51:00.557Z,5.70
2023-03-14T02:53:34.309Z,5.30
2023-03-14T02:56:01.805Z,5.73
2023-03-14T02:58:29.185Z,5.60
2023-03-14T03:00:56.697Z,5.60
2023-03-14T03:03:23.772Z,5.43
2023-03-14T03:05:52.098Z,5.70
2023-03-14T03:08:20.871Z,5.73
2023-03-14T03:10:48.037Z,6.00
2023-03-14T03:13:15.294Z,6.07
2023-03-14T03:15:42.116Z,5.43
2023-03-14T03:18:09.587Z,5.87
2023-03-14T03:20:36.883Z,5.70
2023-03-14T03:23:04.605Z,5.47
2023-03-14T03:25:33.221Z,5.30
2023-03-14T03:28:00.506Z,5.47
2023-03-14T03:30:30.472Z,5.57
2023-03-14T03:32:57.701Z,6.20
2023-03-14T03:35:24.634Z,5.50
2023-03-14T03:37:51.447Z,5.53
2023-03-14T03:40:18.248Z,5.17
2023-03-14T03:42:44.951Z,5.33
2023-03-14T03:45:11.924Z,5.80
2023-03-14T03:47:38.837Z,5.13
2023-03-14T03:50:06.168Z,5.53
2023-03-14T03:52:33.253Z,5.00
2023-03-14T03:55:00.290Z,5.20
2023-03-14T03:57:27.080Z,5.20
2023-03-14T03:59:54.084Z,5.13
2023-03-14T04:02:21.160Z,4.70
2023-03-14T04:04:48.489Z,4.80
2023-03-14T04:07:16.220Z,4.97
2023-03-14T04:09:43.228Z,5.50
2023-03-14T04:12:12.416Z,6.20
2023-03-14T04:14:39.290Z,5.83
2023-03-14T04:17:06.332Z,5.80
2023-03-14T04:19:33.284Z,5.83
2023-03-14T04:22:00.072Z,3.73
2023-03-14T04:24:27.004Z,3.30
2023-03-14T04:26:54.093Z,2.73
2023-03-14T04:29:21.123Z,2.07
2023-03-14T04:31:47.895Z,2.20
2023-03-14T04:34:14.932Z,2.40
2023-03-14T04:36:41.907Z,2.50
2023-03-14T04:39:09.460Z,2.20
2023-03-14T04:41:36.313Z,2.50
2023-03-14T04:44:03.281Z,2.47
2023-03-14T04:46:30.348Z,2.10
2023-03-14T04:49:00.787Z,2.33
2023-03-14T04:51:28.613Z,2.30
2023-03-14T04:53:56.333Z,2.40
2023-03-14T04:56:23.195Z,2.40
2023-03-14T04:58:52.508Z,2.30
2023-03-14T05:01:19.428Z,2.43
2023-03-14T05:03:49.301Z,1.83
2023-03-14T05:06:16.158Z,1.70
2023-03-14T05:08:43.119Z,1.70
2023-03-14T05:11:12.816Z,1.60
2023-03-14T05:13:43.910Z,1.70
2023-03-14T05:16:14.731Z,2.00
2023-03-14T05:18:41.900Z,2.27
2023-03-14T05:21:08.823Z,2.10
2023-03-14T05:23:35.651Z,2.10
2023-03-14T05:26:02.441Z,2.20
2023-03-14T05:28:29.551Z,3.23
2023-03-14T05:30:56.376Z,2.90
2023-03-14T05:33:23.345Z,2.90
2023-03-14T05:35:50.544Z,3.13
2023-03-14T05:38:17.607Z,2.90
2023-03-14T05:40:46.071Z,3.17
2023-03-14T05:43:13.050Z,3.13
2023-03-14T05:45:40.238Z,3.20
2023-03-14T05:48:07.220Z,3.30
2023-03-14T05:50:34.322Z,3.37
2023-03-14T05:53:01.264Z,3.50
2023-03-14T05:55:28.269Z,3.30
2023-03-14T05:57:56.119Z,4.00
2023-03-14T06:00:23.607Z,4.80
2023-03-14T06:02:50.892Z,5.90
2023-03-14T06:05:17.954Z,6.67
2023-03-14T06:07:45.285Z,5.23
2023-03-14T06:10:12.846Z,4.60
2023-03-14T06:12:40.177Z,5.07
2023-03-14T06:15:07.554Z,4.40
2023-03-14T06:17:36.884Z,3.73
2023-03-14T06:20:04.053Z,4.50
2023-03-14T06:22:31.084Z,3.73
2023-03-14T06:25:00.791Z,4.27
2023-03-14T06:27:28.071Z,4.30
2023-03-14T06:29:55.059Z,5.73
2023-03-14T06:32:22.250Z,4.77
2023-03-14T06:34:49.290Z,5.23
2023-03-14T06:37:16.017Z,5.33
2023-03-14T06:39:45.978Z,5.30
2023-03-14T06:42:13.236Z,4.20
2023-03-14T06:44:39.917Z,4.50
2023-03-14T06:47:06.804Z,4.40
2023-03-14T06:49:33.718Z,5.10
2023-03-14T06:52:00.649Z,4.67
2023-03-14T06:54:27.710Z,4.57
2023-03-14T06:56:54.826Z,4.47
2023-03-14T06:59:22.016Z,4.63
2023-03-14T07:01:49.755Z,4.53
2023-03-14T07:04:16.659Z,6.03
2023-03-14T07:06:48.930Z,5.60
2023-03-14T07:09:18.246Z,3.63
2023-03-14T07:11:45.354Z,4.47
2023-03-14T07:14:12.475Z,3.73
2023-03-14T07:16:39.302Z,4.33
2023-03-14T07:19:06.302Z,5.03
2023-03-14T07:21:33.974Z,3.57
2023-03-14T07:24:01.153Z,3.80
2023-03-14T07:26:28.164Z,4.07
2023-03-14T07:28:55.195Z,3.90
2023-03-14T07:31:22.103Z,3.90
2023-03-14T07:33:49.331Z,3.53
2023-03-14T07:36:16.330Z,3.93
2023-03-14T07:38:43.445Z,3.33
2023-03-14T07:41:11.677Z,3.40
2023-03-14T07:43:38.900Z,3.73
2023-03-14T07:46:06.381Z,3.03
2023-03-14T07:48:33.741Z,3.30
2023-03-14T07:51:00.982Z,3.13
2023-03-14T07:53:27.912Z,3.20
2023-03-14T07:55:55.848Z,3.50
2023-03-14T07:58:23.209Z,3.10
2023-03-14T08:00:51.137Z,3.00
2023-03-14T08:03:18.550Z,3.07
2023-03-14T08:05:49.356Z,3.47
2023-03-14T08:08:16.575Z,3.20
2023-03-14T08:10:44.021Z,2.97
2023-03-14T08:13:11.560Z,3.50
2023-03-14T08:15:38.837Z,3.83
2023-03-14T08:18:06.523Z,3.33
2023-03-14T08:20:33.415Z,3.60
2023-03-14T08:23:02.227Z,3.63
2023-03-14T08:25:30.137Z,3.40
2023-03-14T08:27:57.975Z,3.43
2023-03-14T08:30:25.394Z,3.90
2023-03-14T08:32:52.471Z,3.27
2023-03-14T08:35:19.809Z,3.50
2023-03-14T08:37:46.770Z,3.70
2023-03-14T08:40:14.318Z,3.67
2023-03-14T08:42:41.820Z,3.60
2023-03-14T08:45:11.989Z,3.80
2023-03-14T08:47:38.946Z,3.87
2023-03-14T08:50:08.257Z,3.83
2023-03-14T08:52:35.488Z,4.40
2023-03-14T08:55:02.562Z,3.97
2023-03-14T08:57:32.143Z,3.70
2023-03-14T08:59:59.212Z,4.30
2023-03-14T09:02:26.968Z,4.07
2023-03-14T09:04:54.933Z,3.93
2023-03-14T09:07:22.249Z,4.13
2023-03-14T09:09:49.588Z,4.27
2023-03-14T09:12:16.484Z,4.80
2023-03-14T09:14:43.435Z,5.10
2023-03-14T09:17:10.698Z,4.47
2023-03-14T09:19:37.724Z,4.43
2023-03-14T09:22:04.848Z,4.47
2023-03-14T09:24:31.821Z,2.80
2023-03-14T09:27:00.848Z,1.40
2023-03-14T09:29:27.851Z,1.10
2023-03-14T09:32:00.353Z,1.40
2023-03-14T09:34:27.552Z,2.00
2023-03-14T09:36:54.726Z,1.67
2023-03-14T09:39:22.756Z,1.60
2023-03-14T09:41:52.212Z,1.70
2023-03-14T09:44:31.484Z,1.23
2023-03-14T09:47:08.203Z,1.37
2023-03-14T09:49:40.490Z,1.07
2023-03-14T09:52:25.966Z,1.10
2023-03-14T09:54:59.841Z,1.83
2023-03-14T09:57:28.616Z,0.87
2023-03-14T10:00:09.825Z,1.20
2023-03-14T10:02:37.070Z,1.03
2023-03-14T10:05:09.784Z,0.70
2023-03-14T10:07:36.757Z,0.93
2023-03-14T10:10:16.798Z,0.93
2023-03-14T10:12:47.467Z,0.77
2023-03-14T10:15:19.420Z,0.83
2023-03-14T10:17:49.818Z,0.80
2023-03-14T10:20:37.032Z,0.70
2023-03-14T10:23:13.158Z,0.30
2023-03-14T10:25:43.043Z,0.30
2023-03-14T10:28:25.964Z,0.80
2023-03-14T10:30:53.444Z,0.70
2023-03-14T10:33:27.503Z,0.70
2023-03-14T10:35:56.738Z,0.50
2023-03-14T10:38:26.781Z,0.50
2023-03-14T10:40:56.524Z,0.30
2023-03-14T10:43:34.871Z,0.40
2023-03-14T10:46:10.794Z,0.40
2023-03-14T10:48:42.212Z,0.60
2023-03-14T10:51:15.582Z,0.83
2023-03-14T10:53:48.672Z,0.77
2023-03-14T10:56:18.753Z,0.60
2023-03-14T10:58:48.118Z,0.80
2023-03-14T11:01:36.440Z,0.77
2023-03-14T11:04:23.341Z,0.80
2023-03-14T11:07:20.021Z,1.07
2023-03-14T11:09:58.038Z,1.03
2023-03-14T11:12:40.915Z,1.30
2023-03-14T11:15:26.516Z,1.20
2023-03-14T11:18:12.005Z,1.23
2023-03-14T11:20:52.554Z,0.87
2023-03-14T11:23:40.284Z,1.13
2023-03-14T11:26:42.673Z,1.40
2023-03-14T11:29:36.764Z,1.10
2023-03-14T11:32:11.327Z,1.53
2023-03-14T11:34:54.558Z,1.03
2023-03-14T11:37:35.280Z,1.70
2023-03-14T11:40:23.841Z,1.70
2023-03-14T11:43:01.298Z,1.77
2023-03-14T11:45:37.230Z,1.77
2023-03-14T11:48:25.979Z,2.17
2023-03-14T11:50:56.549Z,1.87
2023-03-14T11:53:55.768Z,1.67
2023-03-14T11:56:37.467Z,1.70
2023-03-14T11:59:10.895Z,1.50
2023-03-14T12:02:00.666Z,1.83
2023-03-14T12:04:55.783Z,1.83
2023-03-14T12:07:27.412Z,1.90
2023-03-14T12:09:56.267Z,2.40
2023-03-14T12:12:27.071Z,2.10
2023-03-14T12:15:00.656Z,2.10
2023-03-14T12:17:36.842Z,2.77
2023-03-14T12:20:16.045Z,2.10
2023-03-14T12:22:46.591Z,2.33
2023-03-14T12:25:32.317Z,2.27
2023-03-14T12:27:59.382Z,2.33
2023-03-14T12:30:45.368Z,2.63
2023-03-14T12:33:18.478Z,2.50
2023-03-14T12:36:07.217Z,2.60
2023-03-14T12:38:37.221Z,2.80
2023-03-14T12:41:25.985Z,3.83
2023-03-14T12:43:52.934Z,3.43
2023-03-14T12:46:20.056Z,3.47
2023-03-14T12:48:51.870Z,3.23
2023-03-14T12:51:29.402Z,3.27
2023-03-14T12:54:08.083Z,3.47
2023-03-14T12:56:56.201Z,2.83
2023-03-14T12:59:30.838Z,3.57
2023-03-14T13:02:12.891Z,3.00
2023-03-14T13:04:49.868Z,2.47
2023-03-14T13:07:36.770Z,2.37
2023-03-14T13:12:49.300Z,2.00
2023-03-14T13:15:43.540Z,2.40
2023-03-14T13:18:32.278Z,2.33
2023-03-14T13:21:12.738Z,2.10
2023-03-14T13:23:40.503Z,2.53
2023-03-14T13:26:15.296Z,2.23
2023-03-14T13:28:42.579Z,2.83
2023-03-14T13:31:23.723Z,2.30
2023-03-14T13:34:07.999Z,1.97
2023-03-14T13:36:37.884Z,2.27
2023-03-14T13:39:13.257Z,2.20
2023-03-14T13:41:41.686Z,2.90
2023-03-14T13:44:16.418Z,2.80
2023-03-14T13:46:43.733Z,3.00
2023-03-14T13:49:26.419Z,2.40
2023-03-14T13:51:53.349Z,2.30
2023-03-14T13:54:22.630Z,2.50
2023-03-14T13:56:59.781Z,2.07
2023-03-14T13:59:34.730Z,2.20
2023-03-14T14:02:10.690Z,2.20
2023-03-14T14:04:38.657Z,2.10
2023-03-14T14:07:13.085Z,2.40
2023-03-14T14:09:44.633Z,2.10
2023-03-14T14:12:33.793Z,2.00
2023-03-14T14:15:17.812Z,1.70
2023-03-14T14:17:55.035Z,2.40
2023-03-14T14:20:27.886Z,2.00
2023-03-14T14:22:54.932Z,1.80
2023-03-14T14:25:21.849Z,1.70
2023-03-14T14:27:51.495Z,2.17
2023-03-14T14:30:21.300Z,2.33
2023-03-14T14:32:52.004Z,1.57
2023-03-14T14:35:36.470Z,2.20
2023-03-14T14:38:16.574Z,2.13
2023-03-14T14:40:49.176Z,1.90
2023-03-14T14:43:25.333Z,1.77
2023-03-14T14:45:54.663Z,2.20
2023-03-14T14:48:27.127Z,2.80
2023-03-14T14:51:02.015Z,1.97
2023-03-14T14:53:42.079Z,2.43
2023-03-14T14:56:20.524Z,1.93
2023-03-14T14:58:48.379Z,2.40
2023-03-14T15:01:24.140Z,2.57
2023-03-14T15:03:55.191Z,2.43
2023-03-14T15:06:25.686Z,2.80
2023-03-14T15:08:54.411Z,2.53
2023-03-14T15:11:24.436Z,2.70
2023-03-14T15:13:55.117Z,2.23
2023-03-14T15:16:26.403Z,2.67
2023-03-14T15:18:58.000Z,2.30
2023-03-14T15:21:26.519Z,2.60
2023-03-14T15:23:54.288Z,2.77
2023-03-14T15:26:24.196Z,2.47
2023-03-14T15:28:51.524Z,2.50
2023-03-14T15:31:20.391Z,2.17
2023-03-14T15:33:48.130Z,2.10
2023-03-14T15:36:27.224Z,2.30
2023-03-14T15:38:57.782Z,2.37
2023-03-14T15:41:24.707Z,2.83
2023-03-14T15:43:52.309Z,2.50
2023-03-14T15:46:19.662Z,2.33
2023-03-14T15:48:47.600Z,2.43
2023-03-14T15:51:15.991Z,2.43
2023-03-14T15:53:44.334Z,2.20
2023-03-14T15:56:17.308Z,2.33
2023-03-14T15:58:47.648Z,2.40
2023-03-14T16:01:17.138Z,2.37
2023-03-14T16:03:47.769Z,2.40
2023-03-14T16:06:15.604Z,2.37
2023-03-14T16:08:46.374Z,3.07
2023-03-14T16:11:15.648Z,2.77
2023-03-14T16:13:46.585Z,1.80
2023-03-14T16:16:13.806Z,2.60
2023-03-14T16:18:42.325Z,2.17
2023-03-14T16:21:15.729Z,2.73
2023-03-14T16:23:43.140Z,2.60
2023-03-14T16:26:13.662Z,2.30
2023-03-14T16:28:40.725Z,2.40
2023-03-14T16:31:12.073Z,2.20
2023-03-14T16:33:39.688Z,2.10
2023-03-14T16:36:09.937Z,4.83
2023-03-14T16:38:38.593Z,31.63
2023-03-14T16:41:14.700Z,30.87
2023-03-14T16:43:41.917Z,27.27
2023-03-14T16:46:13.166Z,61.00
2023-03-14T16:48:41.028Z,6.80
2023-03-14T16:51:08.030Z,3.87
2023-03-14T16:53:35.105Z,4.73
2023-03-14T16:56:02.477Z,3.20
2023-03-14T16:58:31.540Z,3.40
2023-03-14T17:00:59.369Z,2.80
2023-03-14T17:03:28.150Z,3.70
2023-03-14T17:05:55.206Z,2.20
2023-03-14T17:08:24.405Z,1.70
2023-03-14T17:10:52.129Z,1.87
2023-03-14T17:13:25.758Z,2.20
2023-03-14T17:16:01.716Z,2.07
2023-03-14T17:18:31.232Z,2.10
2023-03-14T17:20:59.233Z,2.20
2023-03-14T17:23:27.959Z,2.20
2023-03-14T17:25:54.963Z,2.60
2023-03-14T17:28:23.399Z,2.47
2023-03-14T17:30:50.617Z,2.20
2023-03-14T17:33:17.906Z,2.40
2023-03-14T17:35:44.786Z,2.60
2023-03-14T17:38:12.130Z,2.23
2023-03-14T17:40:39.064Z,2.20
2023-03-14T17:43:05.977Z,1.80
2023-03-14T17:45:32.942Z,2.37
2023-03-14T17:48:04.344Z,2.53
2023-03-14T17:50:31.265Z,3.13
2023-03-14T17:52:58.351Z,2.07
2023-03-14T17:55:25.480Z,2.33
2023-03-14T17:57:52.270Z,2.33
2023-03-14T18:00:20.504Z,2.13
2023-03-14T18:02:47.646Z,3.07
2023-03-14T18:05:15.634Z,2.50
2023-03-14T18:07:47.322Z,2.43
2023-03-14T18:10:14.671Z,2.20
2023-03-14T18:12:41.892Z,2.40
2023-03-14T18:15:09.999Z,2.13
2023-03-14T18:17:36.789Z,1.90
2023-03-14T18:20:05.306Z,2.17
2023-03-14T18:22:35.368Z,2.30
2023-03-14T18:25:02.263Z,7.90
2023-03-14T18:27:29.006Z,3.40
2023-03-14T18:29:55.786Z,4.57
2023-03-14T18:32:22.861Z,3.40
2023-03-14T18:34:49.833Z,2.50
2023-03-14T18:37:16.870Z,2.30
2023-03-14T18:39:43.870Z,3.27
2023-03-14T18:42:11.092Z,10.77
2023-03-14T18:44:38.020Z,5.67
2023-03-14T18:47:04.925Z,3.57
2023-03-14T18:49:34.991Z,3.57
2023-03-14T18:52:02.891Z,8.43
2023-03-14T18:54:30.150Z,6.03
2023-03-14T18:57:08.127Z,9.47
2023-03-14T18:59:35.245Z,4.07
2023-03-14T19:02:02.272Z,9.30
2023-03-14T19:04:29.348Z,7.60
2023-03-14T19:06:56.196Z,3.70
2023-03-14T19:09:23.154Z,2.50
2023-03-14T19:11:50.017Z,3.17
2023-03-14T19:14:20.337Z,2.60
2023-03-14T19:16:50.585Z,3.13
2023-03-14T19:19:17.727Z,3.17
2023-03-14T19:21:44.854Z,2.80
2023-03-14T19:24:16.787Z,2.53
2023-03-14T19:26:43.697Z,3.17
2023-03-14T19:29:11.914Z,3.73
2023-03-14T19:31:38.989Z,5.13
2023-03-14T19:34:06.200Z,5.37
2023-03-14T19:36:36.544Z,3.97
2023-03-14T19:39:06.286Z,2.50
2023-03-14T19:41:34.156Z,2.57
2023-03-14T19:44:01.971Z,2.40
2023-03-14T19:46:31.555Z,2.57
2023-03-14T19:48:58.703Z,2.30
2023-03-14T19:51:25.580Z,2.37
2023-03-14T19:53:55.680Z,2.50
2023-03-14T19:56:24.548Z,2.53
2023-03-14T19:58:53.008Z,2.97
2023-03-14T20:01:19.817Z,2.20
2023-03-14T20:03:47.110Z,2.77
2023-03-14T20:06:14.006Z,3.00
2023-03-14T20:08:41.647Z,1.90
2023-03-14T20:11:10.070Z,1.87
2023-03-14T20:13:40.723Z,1.60
2023-03-14T20:16:15.425Z,2.30
2023-03-14T20:18:42.904Z,1.73
2023-03-14T20:21:13.611Z,1.80
2023-03-14T20:23:40.903Z,1.20
2023-03-14T20:26:07.763Z,1.50
2023-03-14T20:28:34.891Z,1.13
2023-03-14T20:31:01.961Z,1.20
2023-03-14T20:33:29.064Z,1.80
2023-03-14T20:35:58.832Z,1.47
2023-03-14T20:38:27.740Z,1.50
2023-03-14T20:41:00.038Z,1.07
2023-03-14T20:43:28.006Z,1.27
2023-03-14T20:45:57.165Z,1.43
2023-03-14T20:48:25.557Z,1.27
2023-03-14T20:50:53.370Z,1.47
2023-03-14T20:53:21.728Z,1.80
2023-03-14T20:55:49.034Z,1.40
2023-03-14T20:58:16.397Z,1.60
2023-03-14T21:00:53.171Z,1.53
2023-03-14T21:03:20.246Z,2.00
2023-03-14T21:05:48.212Z,1.80
2023-03-14T21:08:18.390Z,1.53
2023-03-14T21:10:52.931Z,2.20
2023-03-14T21:13:20.107Z,2.33
2023-03-14T21:15:47.313Z,2.10
2023-03-14T21:18:14.837Z,1.67
2023-03-14T21:20:42.832Z,1.83
2023-03-14T21:23:12.208Z,1.50
2023-03-14T21:25:41.332Z,1.50
2023-03-14T21:28:09.295Z,1.80
2023-03-14T21:30:36.520Z,1.33
2023-03-14T21:33:03.529Z,1.80
2023-03-14T21:35:30.616Z,1.43
2023-03-14T21:37:57.717Z,1.83
2023-03-14T21:40:25.287Z,1.40
2023-03-14T21:42:54.521Z,1.50
2023-03-14T21:45:26.062Z,1.40
2023-03-14T21:47:57.877Z,1.77
2023-03-14T21:50:26.581Z,1.60
2023-03-14T21:52:56.595Z,1.70
2023-03-14T21:55:25.721Z,1.53
2023-03-14T21:57:55.024Z,1.80
2023-03-14T22:00:23.397Z,1.77
2023-03-14T22:03:11.619Z,1.80
2023-03-14T22:05:43.102Z,2.37
2023-03-14T22:08:10.708Z,2.30
2023-03-14T22:10:46.594Z,2.27
2023-03-14T22:13:14.011Z,2.30
2023-03-14T22:15:45.761Z,2.23
2023-03-14T22:18:13.745Z,2.13
2023-03-14T22:20:40.872Z,2.43
2023-03-14T22:23:07.778Z,2.50
2023-03-14T22:25:34.772Z,3.00
2023-03-14T22:28:03.564Z,2.23
2023-03-14T22:30:30.835Z,2.87
2023-03-14T22:32:57.862Z,2.40
2023-03-14T22:35:25.399Z,2.60
2023-03-14T22:37:52.210Z,2.83
2023-03-14T22:40:19.438Z,2.10
2023-03-14T22:42:49.754Z,2.87
2023-03-14T22:45:16.694Z,2.53
2023-03-14T22:47:43.957Z,2.73
2023-03-14T22:50:11.498Z,2.30
2023-03-14T22:52:38.450Z,2.30
2023-03-14T22:55:05.820Z,2.10
2023-03-14T22:57:32.800Z,2.00
2023-03-14T22:59:59.546Z,2.17
2023-03-14T23:02:26.497Z,2.50
2023-03-14T23:04:53.065Z,1.60
2023-03-14T23:07:20.059Z,1.97
2023-03-14T23:09:46.826Z,2.00
2023-03-14T23:12:17.821Z,2.23
2023-03-14T23:14:44.743Z,1.50
2023-03-14T23:17:11.646Z,1.93
2023-03-14T23:19:39.768Z,2.00
2023-03-14T23:22:10.860Z,2.23
2023-03-14T23:24:37.901Z,2.53
2023-03-14T23:27:04.681Z,2.00
2023-03-14T23:29:31.523Z,1.80
2023-03-14T23:31:58.328Z,1.70
2023-03-14T23:34:25.386Z,1.93
2023-03-14T23:36:52.152Z,1.60
2023-03-14T23:39:19.134Z,1.40
2023-03-14T23:41:46.099Z,2.00
2023-03-14T23:44:13.417Z,1.73
2023-03-14T23:46:40.579Z,1.90
2023-03-14T23:49:07.327Z,1.90
2023-03-14T23:51:34.514Z,1.47
2023-03-14T23:54:01.475Z,1.97
2023-03-14T23:56:28.408Z,1.73
2023-03-14T23:58:55.345Z,1.60
